Time;durP1;ratioP1;P1;durP2;ratioP2;P2;SDS_P1;SDS_P2;PMS_P1;PMS_P2;Temp;Humidity;BMP_temperature;BMP_pressure;BME280_temperature;BME280_humidity;BME280_pressure;Samples;Min_cycle;Max_cycle;Signal;HPM_P1;HPM_P2
2022/03/20 00:01:06;;;;;;;28.23;4.93;;;;;;;15.50;nan;101278.75;4881729;29;20457;-90
2022/03/20 00:03:33;;;;;;;30.57;5.67;;;;;;;15.49;nan;101268.81;4866972;29;20457;-90
2022/03/20 00:06:03;;;;;;;30.87;4.83;;;;;;;15.38;nan;101253.78;4882429;29;20449;-90
2022/03/20 00:08:32;;;;;;;32.80;5.87;;;;;;;15.44;nan;101257.56;4897223;29;20489;-89
2022/03/20 00:11:02;;;;;;;30.50;6.30;;;;;;;15.42;nan;101251.41;4867182;29;20456;-92
2022/03/20 00:13:30;;;;;;;29.57;4.30;;;;;;;15.43;nan;101242.09;4897450;29;20475;-90
2022/03/20 00:15:59;;;;;;;22.03;5.20;;;;;;;15.45;nan;101260.09;4882239;29;20454;-90
2022/03/20 00:18:27;;;;;;;27.70;5.33;;;;;;;15.40;nan;101250.78;4866763;29;20476;-89
2022/03/20 00:20:57;;;;;;;25.10;5.67;;;;;;;15.45;nan;101271.13;4881574;29;20464;-91
2022/03/20 00:23:25;;;;;;;31.33;5.73;;;;;;;15.44;nan;101254.81;4882351;29;20450;-92
2022/03/20 00:25:53;;;;;;;35.70;5.57;;;;;;;15.44;nan;101241.03;4879471;29;20461;-90
2022/03/20 00:28:25;;;;;;;29.03;5.57;;;;;;;15.46;nan;101238.91;4877634;29;20561;-93
2022/03/20 00:30:54;;;;;;;31.87;5.83;;;;;;;15.45;nan;101242.72;4893307;29;20847;-90
2022/03/20 00:33:22;;;;;;;35.67;5.83;;;;;;;15.44;nan;101235.53;4864967;29;20513;-90
2022/03/20 00:35:50;;;;;;;28.90;4.87;;;;;;;15.44;nan;101236.38;4878315;29;20584;-90
2022/03/20 00:38:20;;;;;;;29.33;5.30;;;;;;;15.45;nan;101231.72;4882116;29;20445;-92
2022/03/20 00:40:47;;;;;;;20.23;5.10;;;;;;;15.45;nan;101226.19;4866138;29;20461;-91
2022/03/20 00:43:15;;;;;;;23.83;5.70;;;;;;;15.40;nan;101217.72;4866161;29;20803;-91
2022/03/20 00:45:43;;;;;;;19.13;4.80;;;;;;;15.43;nan;101228.31;4863792;29;20450;-90
2022/03/20 00:48:10;;;;;;;24.33;4.93;;;;;;;15.37;nan;101224.53;4865464;29;20485;-90
2022/03/20 00:50:38;;;;;;;31.37;5.40;;;;;;;15.40;nan;101231.50;4863148;29;20453;-91
2022/03/20 00:53:06;;;;;;;35.63;5.63;;;;;;;15.40;nan;101228.75;4863661;29;20446;-90
2022/03/20 00:55:34;;;;;;;23.97;4.30;;;;;;;15.43;nan;101211.78;4848091;29;20521;-89
2022/03/20 00:58:01;;;;;;;25.53;5.57;;;;;;;15.34;nan;101199.31;4863109;29;20527;-91
2022/03/20 01:00:32;;;;;;;27.03;5.83;;;;;;;15.38;nan;101208.84;4847790;29;20457;-90
2022/03/20 01:03:01;;;;;;;23.83;5.20;;;;;;;15.38;nan;101208.84;4870157;29;20457;-91
2022/03/20 01:05:30;;;;;;;25.13;4.87;;;;;;;15.36;nan;101206.31;4867124;29;20449;-91
2022/03/20 01:08:00;;;;;;;21.93;5.67;;;;;;;15.40;nan;101202.03;4868088;29;20484;-91
2022/03/20 01:10:35;;;;;;;24.33;4.90;;;;;;;15.39;nan;101189.38;4886012;29;20449;-90
2022/03/20 01:13:03;;;;;;;28.97;5.67;;;;;;;15.39;nan;101194.03;4900174;29;20461;-90
2022/03/20 01:15:31;;;;;;;22.73;5.03;;;;;;;15.39;nan;101196.78;4883086;29;20484;-90
2022/03/20 01:18:00;;;;;;;35.00;5.70;;;;;;;15.35;nan;101181.75;4851478;29;20447;-90
2022/03/20 01:20:28;;;;;;;20.20;4.53;;;;;;;15.40;nan;101181.91;4851256;29;20458;-91
2022/03/20 01:22:56;;;;;;;24.57;6.27;;;;;;;15.39;nan;101169.25;4861319;29;20473;-91
2022/03/20 01:25:23;;;;;;;23.97;6.17;;;;;;;15.39;nan;101177.50;4869844;29;20458;-90
2022/03/20 01:27:51;;;;;;;34.17;6.03;;;;;;;15.36;nan;101158.66;4863773;29;20482;-90
2022/03/20 01:30:21;;;;;;;25.87;5.67;;;;;;;15.40;nan;101171.75;4881273;29;20457;-90
2022/03/20 01:32:49;;;;;;;38.40;5.87;;;;;;;15.38;nan;101170.28;4885032;29;20449;-91
2022/03/20 01:35:17;;;;;;;34.37;6.90;;;;;;;15.41;nan;101169.84;4869340;29;20454;-89
2022/03/20 01:37:46;;;;;;;42.10;6.27;;;;;;;15.40;nan;101173.66;4869220;29;20457;-90
2022/03/20 01:40:14;;;;;;;27.20;5.60;;;;;;;15.36;nan;101159.50;4884634;29;20948;-90
2022/03/20 01:42:43;;;;;;;29.50;6.50;;;;;;;15.38;nan;101162.03;4875387;29;20502;-90
2022/03/20 01:45:18;;;;;;;28.30;5.90;;;;;;;15.41;nan;101158.81;4863002;29;20884;-91
2022/03/20 01:47:47;;;;;;;34.63;5.17;;;;;;;15.38;nan;101148.25;4881982;29;20487;-90
2022/03/20 01:50:19;;;;;;;35.37;5.80;;;;;;;15.33;nan;101137.88;4899851;29;20505;-91
2022/03/20 01:52:48;;;;;;;36.23;6.30;;;;;;;15.39;nan;101141.69;4899482;29;20457;-90
2022/03/20 01:55:19;;;;;;;40.13;7.13;;;;;;;15.39;nan;101137.03;4915580;29;20453;-90
2022/03/20 01:57:47;;;;;;;25.17;5.77;;;;;;;15.38;nan;101142.75;4899766;29;20446;-90
2022/03/20 02:00:16;;;;;;;27.53;5.87;;;;;;;15.39;nan;101138.94;4899913;29;20461;-90
2022/03/20 02:02:44;;;;;;;33.73;5.60;;;;;;;15.36;nan;101131.09;4899702;29;20459;-91
2022/03/20 02:05:12;;;;;;;41.90;6.70;;;;;;;15.30;nan;101112.69;4865533;29;20525;-90
2022/03/20 02:07:42;;;;;;;32.13;6.00;;;;;;;15.37;nan;101122.63;4865295;29;20486;-91
2022/03/20 02:10:11;;;;;;;30.63;7.43;;;;;;;15.39;nan;101127.91;4865684;29;20454;-90
2022/03/20 02:12:40;;;;;;;31.57;5.10;;;;;;;15.37;nan;101108.00;4866711;29;20450;-90
2022/03/20 02:15:12;;;;;;;31.67;6.83;;;;;;;15.33;nan;101091.06;4850086;29;20459;-90
2022/03/20 02:17:42;;;;;;;31.97;5.80;;;;;;;15.32;nan;101074.75;4895582;29;20458;-90
2022/03/20 02:20:10;;;;;;;32.80;6.73;;;;;;;15.38;nan;101084.91;4849688;29;20451;-90
2022/03/20 02:23:00;;;;;;;28.73;5.20;;;;;;;15.31;nan;101075.81;4855597;29;20958;-90
2022/03/20 02:25:29;;;;;;;31.10;6.27;;;;;;;15.37;nan;101102.50;4882910;29;20459;-89
2022/03/20 02:27:58;;;;;;;24.73;5.70;;;;;;;15.34;nan;101090.00;4861230;29;20854;-90
2022/03/20 02:30:30;;;;;;;30.67;5.97;;;;;;;15.38;nan;101104.19;4890705;29;20459;-89
2022/03/20 02:32:58;;;;;;;30.90;5.60;;;;;;;15.36;nan;101096.16;4851014;29;20455;-89
2022/03/20 02:35:27;;;;;;;31.43;5.97;;;;;;;15.36;nan;101098.06;4849834;29;20461;-89
2022/03/20 02:37:56;;;;;;;30.37;6.70;;;;;;;15.35;nan;101093.59;4850249;29;20458;-90
2022/03/20 02:40:24;;;;;;;30.03;6.40;;;;;;;15.37;nan;101091.47;4865140;29;20457;-92
2022/03/20 02:42:53;;;;;;;27.17;5.93;;;;;;;15.38;nan;101093.19;4874865;29;20457;-90
2022/03/20 02:45:23;;;;;;;29.43;6.00;;;;;;;15.36;nan;101089.78;4881596;29;20450;-90
2022/03/20 02:47:51;;;;;;;37.43;7.40;;;;;;;15.38;nan;101088.50;4882997;29;20485;-90
2022/03/20 02:50:32;;;;;;;37.60;7.40;;;;;;;15.42;nan;101083.38;4883106;29;20453;-90
2022/03/20 02:53:13;;;;;;;47.23;6.90;;;;;;;15.42;nan;101081.47;4880176;29;20461;-91
2022/03/20 02:55:45;;;;;;;37.77;7.43;;;;;;;15.40;nan;101060.72;4878221;29;20961;-90
2022/03/20 02:58:16;;;;;;;32.77;6.90;;;;;;;15.43;nan;101068.56;4868472;29;20937;-89
2022/03/20 03:00:44;;;;;;;29.73;5.53;;;;;;;15.45;nan;101067.28;4883527;29;20461;-89
2022/03/20 03:03:13;;;;;;;29.43;6.90;;;;;;;15.42;nan;101053.09;4867988;29;20531;-90
2022/03/20 03:05:41;;;;;;;42.77;6.60;;;;;;;15.44;nan;101048.22;4898113;29;20517;-91
2022/03/20 03:10:57;;;;;;;29.87;6.00;;;;;;;15.44;nan;101032.53;4898243;29;20461;-91
2022/03/20 03:13:38;;;;;;;32.63;6.80;;;;;;;15.47;nan;101036.75;4811577;29;20540;-90
2022/03/20 03:16:08;;;;;;;40.77;7.00;;;;;;;15.43;nan;101033.59;4847180;29;20485;-89
2022/03/20 03:18:37;;;;;;;40.93;8.47;;;;;;;15.46;nan;101026.81;4828473;29;20503;-90
2022/03/20 03:21:05;;;;;;;42.17;7.47;;;;;;;15.45;nan;101023.19;4815540;29;20489;-91
2022/03/20 03:23:36;;;;;;;46.83;8.83;;;;;;;15.44;nan;101020.66;4829798;29;20451;-90
2022/03/20 03:26:06;;;;;;;37.00;8.37;;;;;;;15.45;nan;101022.34;4815438;29;20523;-90
2022/03/20 03:28:34;;;;;;;29.70;7.30;;;;;;;15.45;nan;101009.44;4830076;29;20475;-91
2022/03/20 03:31:11;;;;;;;36.67;7.60;;;;;;;15.47;nan;101015.56;4826194;29;20474;-91
2022/03/20 03:35:41;;;;;;;34.43;7.30;;;;;;;15.45;nan;101001.16;4876193;29;20446;-90
2022/03/20 03:36:29;;;;;;;34.60;7.20;;;;;;;15.46;nan;100996.50;4867145;29;20442;-89
2022/03/20 03:38:56;;;;;;;54.77;7.93;;;;;;;15.49;nan;101007.09;4863832;29;20454;-91
2022/03/20 03:41:24;;;;;;;44.97;7.43;;;;;;;15.43;nan;100983.16;4878707;29;20948;-91
2022/03/20 03:43:52;;;;;;;41.43;7.93;;;;;;;15.45;nan;100989.31;4882377;29;20484;-90
2022/03/20 03:46:22;;;;;;;32.70;9.20;;;;;;;15.50;nan;100992.25;4865214;29;20465;-91
2022/03/20 03:48:50;;;;;;;36.77;7.37;;;;;;;15.48;nan;100977.84;4878782;29;20494;-90
2022/03/20 03:51:18;;;;;;;36.27;6.70;;;;;;;15.48;nan;100986.13;4848486;29;20450;-90
2022/03/20 03:53:45;;;;;;;32.57;7.60;;;;;;;15.46;nan;100964.28;4865450;29;20457;-91
2022/03/20 03:56:13;;;;;;;38.13;7.97;;;;;;;15.43;nan;100970.25;4866631;29;20454;-90
2022/03/20 03:58:41;;;;;;;44.53;8.40;;;;;;;15.47;nan;100956.88;4897047;29;20441;-90
2022/03/20 04:01:09;;;;;;;35.90;6.60;;;;;;;15.49;nan;100963.00;4882467;29;20464;-91
2022/03/20 04:03:36;;;;;;;52.83;9.10;;;;;;;15.47;nan;100945.84;4866891;29;20458;-91
2022/03/20 04:06:06;;;;;;;43.47;7.50;;;;;;;15.48;nan;100955.81;4882169;29;21004;-90
2022/03/20 04:08:35;;;;;;;50.63;8.00;;;;;;;15.48;nan;100955.81;4872414;29;20482;-90
2022/03/20 04:11:04;;;;;;;47.63;10.40;;;;;;;15.51;nan;100960.88;4863436;29;20453;-91
2022/03/20 04:13:32;;;;;;;42.40;7.37;;;;;;;15.48;nan;100939.28;4863695;29;20509;-90
2022/03/20 04:16:00;;;;;;;52.70;8.53;;;;;;;15.48;nan;100947.53;4848553;29;20457;-91
2022/03/20 04:18:28;;;;;;;41.03;7.00;;;;;;;15.49;nan;100941.81;4879681;29;20458;-90
2022/03/20 04:20:56;;;;;;;52.60;8.33;;;;;;;15.51;nan;100941.59;4879804;29;20454;-90
2022/03/20 04:26:10;;;;;;;40.50;9.43;;;;;;;15.50;nan;100938.00;4866228;29;20451;-90
2022/03/20 04:28:38;;;;;;;33.33;7.60;;;;;;;15.45;nan;100931.47;4864091;29;20481;-92
2022/03/20 04:31:06;;;;;;;45.47;8.60;;;;;;;15.46;nan;100946.91;4882004;29;20832;-91
2022/03/20 04:33:35;;;;;;;46.20;9.03;;;;;;;15.47;nan;100945.84;4881832;29;20461;-90
2022/03/20 04:36:03;;;;;;;47.83;8.47;;;;;;;15.48;nan;100953.91;4856522;29;20461;-90
2022/03/20 04:38:37;;;;;;;45.90;7.00;;;;;;;15.50;nan;100939.91;4882013;29;20441;-91
2022/03/20 04:41:05;;;;;;;41.80;7.90;;;;;;;15.53;nan;100950.50;4882360;29;20453;-90
2022/03/20 04:43:33;;;;;;;39.30;6.60;;;;;;;15.51;nan;100949.88;4869338;29;20862;-91
2022/03/20 04:46:01;;;;;;;37.43;7.83;;;;;;;15.54;nan;100949.44;4886026;29;20501;-90
2022/03/20 04:59:35;;;;;;;67.43;9.00;;;;;;;15.55;nan;100967.66;4869242;29;20506;-91
2022/03/20 05:02:03;;;;;;;46.20;8.40;;;;;;;15.56;nan;100963.00;4855686;29;20469;-90
2022/03/20 05:04:33;;;;;;;39.87;7.33;;;;;;;15.55;nan;100962.13;4867628;29;20453;-90
2022/03/20 05:07:01;;;;;;;46.07;7.80;;;;;;;15.51;nan;100953.47;4900601;29;20513;-91
2022/03/20 05:15:33;;;;;;;43.57;9.87;;;;;;;15.55;nan;100962.13;4901566;29;20824;-90
2022/03/20 05:18:01;;;;;;;60.80;11.10;;;;;;;15.52;nan;100954.31;4883919;29;20453;-91
2022/03/20 05:20:28;;;;;;;54.47;9.60;;;;;;;15.52;nan;100957.06;4884785;29;20460;-90
2022/03/20 05:22:56;;;;;;;45.77;9.20;;;;;;;15.54;nan;100965.97;4858270;29;20462;-90
2022/03/20 05:25:24;;;;;;;55.67;8.17;;;;;;;15.53;nan;100953.25;4881380;29;20453;-91
2022/03/20 05:27:52;;;;;;;48.33;8.73;;;;;;;15.54;nan;100955.78;4861147;29;20465;-91
2022/03/20 05:30:20;;;;;;;42.90;8.67;;;;;;;15.50;nan;100942.66;4869077;29;20547;-90
2022/03/20 05:32:48;;;;;;;49.67;9.00;;;;;;;15.52;nan;100954.31;4900614;29;20457;-90
2022/03/20 05:35:16;;;;;;;39.93;9.63;;;;;;;15.55;nan;100951.13;4884677;29;21004;-90
2022/03/20 05:37:44;;;;;;;45.00;10.43;;;;;;;15.50;nan;100943.50;4795057;29;20509;-91
2022/03/20 05:40:13;;;;;;;52.03;11.23;;;;;;;15.56;nan;100952.84;4824645;29;20453;-89
2022/03/20 05:42:42;;;;;;;48.30;9.43;;;;;;;15.55;nan;100945.59;4825153;29;20516;-91
2022/03/20 05:45:10;;;;;;;47.33;7.80;;;;;;;15.52;nan;100943.28;4794834;29;20461;-89
2022/03/20 05:47:39;;;;;;;41.63;9.60;;;;;;;15.53;nan;100944.97;4824644;29;20868;-91
2022/03/20 05:50:08;;;;;;;49.70;8.63;;;;;;;15.51;nan;100939.69;4825028;29;20485;-91
2022/03/20 05:52:36;;;;;;;58.17;10.90;;;;;;;15.50;nan;100942.66;4825171;29;20457;-92
2022/03/20 05:55:06;;;;;;;54.40;8.60;;;;;;;15.54;nan;100952.19;4820612;29;20481;-91
2022/03/20 06:00:27;;;;;;;53.73;9.70;;;;;;;15.55;nan;100948.38;4868076;29;20450;-90
2022/03/20 06:02:55;;;;;;;40.73;8.27;;;;;;;15.51;nan;100947.13;4865217;29;20458;-90
2022/03/20 06:05:23;;;;;;;56.43;9.00;;;;;;;15.54;nan;100944.75;4850617;29;20456;-90
2022/03/20 06:07:52;;;;;;;32.77;8.93;;;;;;;15.51;nan;100944.34;4850285;29;20461;-91
2022/03/20 06:10:21;;;;;;;51.33;9.03;;;;;;;15.46;nan;100927.63;4865791;29;20864;-91
2022/03/20 06:12:48;;;;;;;43.97;8.57;;;;;;;15.54;nan;100943.91;4850450;29;20462;-91
2022/03/20 06:15:16;;;;;;;41.20;7.87;;;;;;;15.53;nan;100953.25;4850411;29;20498;-90
2022/03/20 06:17:47;;;;;;;50.63;9.90;;;;;;;15.56;nan;100940.97;4854285;29;20457;-91
2022/03/20 06:20:17;;;;;;;48.70;8.20;;;;;;;15.49;nan;100935.47;4850793;29;20455;-91
2022/03/20 06:22:47;;;;;;;58.80;10.47;;;;;;;15.56;nan;100947.34;4889599;29;20461;-91
2022/03/20 06:25:15;;;;;;;49.27;10.50;;;;;;;15.56;nan;100943.72;4884639;29;20454;-90
2022/03/20 06:27:50;;;;;;;32.40;8.13;;;;;;;15.53;nan;100932.06;4874223;29;20457;-90
2022/03/20 06:30:19;;;;;;;68.93;10.77;;;;;;;15.54;nan;100932.91;4864985;29;20493;-90
2022/03/20 06:32:47;;;;;;;55.60;7.93;;;;;;;15.56;nan;100928.03;4859368;29;20450;-90
2022/03/20 06:35:18;;;;;;;68.83;10.50;;;;;;;15.57;nan;100926.13;4868607;29;20443;-90
2022/03/20 06:37:50;;;;;;;45.73;9.93;;;;;;;15.55;nan;100923.56;4850912;29;20450;-91
2022/03/20 06:40:18;;;;;;;57.50;10.97;;;;;;;15.55;nan;100909.78;4878725;29;20449;-91
2022/03/20 06:42:47;;;;;;;62.47;10.73;;;;;;;15.56;nan;100917.03;4870210;29;20450;-91
2022/03/20 06:45:15;;;;;;;49.37;8.30;;;;;;;15.56;nan;100911.53;4851657;29;20461;-91
2022/03/20 06:47:43;;;;;;;45.17;9.43;;;;;;;15.56;nan;100910.66;4867515;29;20465;-90
2022/03/20 06:50:12;;;;;;;55.80;10.33;;;;;;;15.55;nan;100918.06;4866419;29;20481;-90
2022/03/20 06:52:40;;;;;;;50.77;9.03;;;;;;;15.55;nan;100907.03;4873783;29;20510;-89
2022/03/20 06:55:12;;;;;;;45.40;10.00;;;;;;;15.55;nan;100915.31;4880010;29;20450;-90
2022/03/20 06:57:44;;;;;;;42.20;9.83;;;;;;;15.52;nan;100907.47;4849965;29;20446;-89
2022/03/20 07:00:13;;;;;;;48.80;9.70;;;;;;;15.55;nan;100915.31;4849257;29;20454;-89
2022/03/20 07:02:41;;;;;;;54.70;11.73;;;;;;;15.57;nan;100915.97;4850507;29;20455;-90
2022/03/20 07:05:09;;;;;;;51.97;10.43;;;;;;;15.57;nan;100898.59;4858111;29;20454;-90
2022/03/20 07:07:37;;;;;;;45.33;10.20;;;;;;;15.57;nan;100902.19;4886687;29;20464;-90
2022/03/20 07:10:06;;;;;;;58.17;10.40;;;;;;;15.50;nan;100893.06;4882879;29;20488;-91
2022/03/20 07:12:33;;;;;;;72.97;12.37;;;;;;;15.56;nan;100892.22;4883494;29;20457;-90
2022/03/20 07:15:01;;;;;;;53.57;11.60;;;;;;;15.59;nan;100902.78;4867768;29;20458;-91
2022/03/20 07:17:30;;;;;;;42.50;9.60;;;;;;;15.58;nan;100895.59;4868253;29;20464;-91
2022/03/20 07:19:58;;;;;;;53.60;10.17;;;;;;;15.59;nan;100889.00;4849659;29;20446;-90
2022/03/20 07:22:26;;;;;;;56.53;9.93;;;;;;;15.53;nan;100879.72;4860660;29;20451;-90
2022/03/20 07:29:29;;;;;;;50.17;10.70;;;;;;;15.57;nan;100893.91;4864515;29;20505;-90
2022/03/20 07:30:29;;;;;;;48.90;10.90;;;;;;;15.62;nan;100887.72;4879239;29;20482;-90
2022/03/20 07:32:57;;;;;;;56.27;10.50;;;;;;;15.62;nan;100896.81;4887108;29;20458;-90
2022/03/20 07:35:25;;;;;;;57.57;11.63;;;;;;;15.61;nan;100889.63;4868925;29;20460;-91
2022/03/20 07:37:53;;;;;;;58.13;12.50;;;;;;;15.63;nan;100898.50;4867529;29;20476;-91
2022/03/20 07:40:24;;;;;;;51.97;11.10;;;;;;;15.63;nan;100895.75;4880500;29;20442;-90
2022/03/20 07:42:53;;;;;;;54.00;13.03;;;;;;;15.67;nan;100888.75;4879569;29;20518;-92
2022/03/20 07:45:22;;;;;;;64.53;11.70;;;;;;;15.66;nan;100884.28;4864015;29;20446;-91
2022/03/20 07:47:50;;;;;;;60.30;11.67;;;;;;;15.68;nan;100890.44;4864234;29;20461;-91
2022/03/20 07:50:18;;;;;;;49.67;12.00;;;;;;;15.64;nan;100874.56;4848049;29;20997;-90
2022/03/20 07:52:47;;;;;;;69.23;12.57;;;;;;;15.72;nan;100885.31;4863653;29;20454;-91
2022/03/20 07:55:17;;;;;;;62.30;12.30;;;;;;;15.73;nan;100887.84;4879159;29;20884;-90
2022/03/20 07:57:44;;;;;;;65.23;11.90;;;;;;;15.72;nan;100890.84;4848343;29;20462;-89
2022/03/20 08:00:13;;;;;;;64.20;14.13;;;;;;;15.74;nan;100883.19;4848666;29;20526;-91
2022/03/20 08:02:41;;;;;;;59.93;13.53;;;;;;;15.77;nan;100893.78;4888816;29;20457;-91
2022/03/20 08:05:11;;;;;;;57.27;11.90;;;;;;;15.75;nan;100885.72;4882118;29;20453;-90
2022/03/20 08:07:39;;;;;;;83.27;15.20;;;;;;;15.81;nan;100890.31;4857824;29;20454;-90
2022/03/20 08:10:08;;;;;;;48.63;12.53;;;;;;;15.80;nan;100885.88;4863700;29;20481;-91
2022/03/20 08:12:38;;;;;;;65.70;10.60;;;;;;;15.85;nan;100896.22;4881799;29;20533;-90
2022/03/20 08:15:09;;;;;;;68.53;13.77;;;;;;;15.90;nan;100888.13;4876885;29;20973;-91
2022/03/20 08:17:48;;;;;;;53.77;11.50;;;;;;;15.94;nan;100888.53;4880881;29;20466;-89
2022/03/20 08:20:17;;;;;;;59.73;11.23;;;;;;;15.94;nan;100880.25;4878362;29;20871;-89
2022/03/20 08:22:46;;;;;;;60.13;13.30;;;;;;;15.96;nan;100869.84;4863122;29;20451;-89
2022/03/20 08:25:14;;;;;;;42.43;11.73;;;;;;;16.02;nan;100885.47;4878797;29;20455;-88
2022/03/20 08:27:46;;;;;;;60.10;12.90;;;;;;;16.03;nan;100873.38;4871074;29;20516;-89
2022/03/20 08:30:15;;;;;;;62.43;11.90;;;;;;;16.09;nan;100883.50;4880746;29;20485;-88
2022/03/20 08:32:47;;;;;;;82.13;13.20;;;;;;;16.08;nan;100857.00;4866153;29;20472;-88
2022/03/20 08:35:16;;;;;;;70.40;13.63;;;;;;;16.15;nan;100877.09;4896798;29;20454;-88
2022/03/20 08:37:47;;;;;;;62.73;13.27;;;;;;;16.20;nan;100871.72;4863167;29;20946;-88
2022/03/20 08:40:19;;;;;;;57.57;12.00;;;;;;;16.22;nan;100875.09;4879102;29;20454;-88
2022/03/20 08:42:56;;;;;;;53.33;12.17;;;;;;;16.27;nan;100885.44;4878265;29;20980;-89
2022/03/20 08:45:29;;;;;;;85.97;13.10;;;;;;;16.27;nan;100872.50;4894264;29;20457;-88
2022/03/20 08:47:58;;;;;;;69.47;19.83;;;;;;;16.29;nan;100875.88;4878843;29;20523;-88
2022/03/20 08:50:26;;;;;;;77.37;18.27;;;;;;;16.33;nan;100866.09;4896626;29;21000;-89
2022/03/20 08:52:55;;;;;;;62.20;14.30;;;;;;;16.35;nan;100880.50;4881233;29;20453;-88
2022/03/20 08:55:23;;;;;;;59.70;13.03;;;;;;;16.37;nan;100889.34;4896838;29;20444;-88
2022/03/20 08:57:54;;;;;;;71.90;13.10;;;;;;;16.37;nan;100875.56;4881568;29;20831;-89
2022/03/20 09:00:23;;;;;;;70.73;13.00;;;;;;;16.38;nan;100884.69;4867291;29;20980;-88
2022/03/20 09:02:51;;;;;;;63.97;14.77;;;;;;;16.35;nan;100869.47;4881573;29;20450;-88
2022/03/20 09:05:20;;;;;;;57.67;12.33;;;;;;;16.44;nan;100887.38;4866177;29;20513;-91
2022/03/20 09:07:49;;;;;;;71.57;14.60;;;;;;;16.41;nan;100879.56;4889428;29;20454;-89
2022/03/20 09:10:17;;;;;;;64.73;12.73;;;;;;;16.48;nan;100880.34;4862458;29;20490;-89
2022/03/20 09:12:45;;;;;;;89.03;13.33;;;;;;;16.55;nan;100877.50;4810364;29;20456;-89
2022/03/20 09:15:16;;;;;;;73.87;12.70;;;;;;;16.63;nan;100879.09;4843152;29;20463;-87
2022/03/20 09:20:34;;;;;;;53.70;12.00;;;;;;;16.78;nan;100885.94;4828261;29;20492;-88
2022/03/20 09:23:03;;;;;;;73.33;12.63;;;;;;;16.92;nan;100892.16;4840043;29;20452;-88
2022/03/20 09:25:32;;;;;;;80.17;11.80;;;;;;;17.03;nan;100898.81;4856647;29;20451;-88
2022/03/20 09:28:04;;;;;;;74.00;13.00;;;;;;;17.14;nan;100898.84;4841275;29;20455;-89
2022/03/20 09:30:33;;;;;;;50.17;12.13;;;;;;;17.30;nan;100904.84;4859759;29;20481;-88
2022/03/20 09:33:02;;;;;;;53.10;12.30;;;;;;;17.38;nan;100907.25;4882862;29;20927;-88
2022/03/20 09:35:34;;;;;;;70.07;13.20;;;;;;;17.44;nan;100895.25;4866724;29;20465;-88
2022/03/20 09:38:04;;;;;;;59.73;13.00;;;;;;;17.49;nan;100899.00;4898372;29;20452;-89
2022/03/20 09:40:33;;;;;;;70.70;15.30;;;;;;;17.45;nan;100875.69;4882672;29;20964;-88
2022/03/20 09:43:01;;;;;;;82.73;18.90;;;;;;;17.49;nan;100873.31;4864909;29;20446;-89
2022/03/20 09:45:29;;;;;;;82.90;21.37;;;;;;;17.48;nan;100871.63;4882977;29;20449;-88
2022/03/20 09:47:57;;;;;;;70.97;19.47;;;;;;;17.61;nan;100872.25;4882796;29;20442;-89
2022/03/20 09:50:24;;;;;;;73.37;18.20;;;;;;;17.78;nan;100877.94;4868055;29;20536;-89
2022/03/20 09:52:54;;;;;;;62.47;16.77;;;;;;;17.90;nan;100878.78;4898860;29;20824;-88
2022/03/20 09:55:21;;;;;;;57.00;14.73;;;;;;;17.99;nan;100882.06;4867546;29;20851;-88
2022/03/20 09:57:58;;;;;;;72.37;13.23;;;;;;;17.95;nan;100862.34;4883445;29;20446;-89
2022/03/20 10:00:27;;;;;;;61.17;13.30;;;;;;;18.07;nan;100873.44;4883829;29;20461;-89
2022/03/20 10:02:54;;;;;;;55.87;13.53;;;;;;;18.21;nan;100871.25;4883007;29;20454;-89
2022/03/20 10:05:26;;;;;;;66.50;13.30;;;;;;;18.29;nan;100868.09;4879683;29;20459;-89
2022/03/20 10:07:53;;;;;;;57.23;13.10;;;;;;;18.35;nan;100853.31;4879975;29;20984;-89
2022/03/20 10:10:23;;;;;;;64.97;13.77;;;;;;;18.46;nan;100857.16;4849631;29;20497;-89
2022/03/20 10:12:53;;;;;;;67.33;12.40;;;;;;;18.61;nan;100858.34;4864884;29;20485;-88
2022/03/20 10:15:28;;;;;;;64.17;12.03;;;;;;;18.76;nan;100843.16;4842021;29;20460;-89
2022/03/20 10:18:14;;;;;;;70.73;12.23;;;;;;;18.91;nan;100846.22;4842390;29;20460;-89
2022/03/20 10:20:49;;;;;;;57.40;12.77;;;;;;;19.10;nan;100833.00;4841183;29;21016;-89
2022/03/20 10:23:34;;;;;;;66.43;13.83;;;;;;;19.35;nan;100827.94;4838625;29;20445;-90
2022/03/20 10:26:20;;;;;;;62.23;12.93;;;;;;;19.57;nan;100819.78;4816476;29;20467;-89
2022/03/20 10:28:52;;;;;;;53.13;12.07;;;;;;;19.71;nan;100823.03;4811973;29;20460;-89
2022/03/20 10:31:20;;;;;;;76.17;11.53;;;;;;;19.88;nan;100813.63;4811668;29;20484;-90
2022/03/20 10:34:03;;;;;;;57.17;11.77;;;;;;;19.89;nan;100801.44;4853014;29;20468;-89
2022/03/20 10:36:31;;;;;;;53.93;12.23;;;;;;;19.87;nan;100822.19;4898740;29;20458;-88
2022/03/20 10:38:59;;;;;;;48.27;10.57;;;;;;;19.60;nan;100799.88;4867883;29;20453;-89
2022/03/20 10:41:34;;;;;;;64.67;11.53;;;;;;;19.41;nan;100790.09;4882657;29;20461;-90
2022/03/20 10:44:26;;;;;;;72.60;11.03;;;;;;;19.36;nan;100796.38;4880679;29;20494;-89
2022/03/20 10:47:04;;;;;;;46.23;11.70;;;;;;;19.38;nan;100796.13;4866152;29;20460;-89
2022/03/20 10:49:34;;;;;;;74.47;13.93;;;;;;;19.38;nan;100772.03;4883467;29;20516;-90
2022/03/20 10:52:25;;;;;;;57.43;11.37;;;;;;;19.41;nan;100795.63;4871957;29;20447;-90
2022/03/20 10:54:54;;;;;;;57.77;11.03;;;;;;;19.22;nan;100790.31;4882363;29;20456;-89
2022/03/20 10:57:22;;;;;;;71.23;13.37;;;;;;;19.12;nan;100809.50;4883225;29;20518;-90
2022/03/20 11:00:30;;;;;;;43.57;10.13;;;;;;;18.92;nan;100811.91;4882972;29;20454;-90
2022/03/20 11:02:58;;;;;;;44.83;10.53;;;;;;;18.71;nan;100826.41;4883513;29;20493;-89
2022/03/20 11:05:25;;;;;;;60.40;12.37;;;;;;;18.49;nan;100817.91;4898112;29;20453;-90
2022/03/20 11:07:53;;;;;;;59.60;11.80;;;;;;;18.36;nan;100834.78;4882396;29;20450;-89
2022/03/20 11:10:21;;;;;;;57.47;11.53;;;;;;;18.08;nan;100814.25;4867424;29;20511;-90
2022/03/20 11:12:49;;;;;;;48.67;10.03;;;;;;;17.97;nan;100819.78;4867649;29;20453;-90
2022/03/20 11:15:17;;;;;;;60.10;12.40;;;;;;;17.78;nan;100817.13;4882885;29;20453;-90
2022/03/20 11:17:46;;;;;;;55.70;14.00;;;;;;;17.63;nan;100816.72;4883050;29;20440;-91
2022/03/20 11:20:15;;;;;;;57.50;14.90;;;;;;;17.50;nan;100812.28;4882358;29;20438;-89
2022/03/20 11:22:51;;;;;;;59.87;11.97;;;;;;;17.36;nan;100813.53;4882852;29;20457;-90
2022/03/20 11:25:22;;;;;;;68.90;13.67;;;;;;;17.29;nan;100798.16;4883094;29;20458;-90
2022/03/20 11:27:59;;;;;;;89.73;14.00;;;;;;;17.19;nan;100810.63;4866249;29;20971;-87
2022/03/20 11:30:30;;;;;;;76.47;15.50;;;;;;;17.09;nan;100806.75;4864429;29;20478;-87
2022/03/20 11:33:00;;;;;;;72.80;14.70;;;;;;;16.95;nan;100819.88;4866509;29;20458;-87
2022/03/20 11:35:30;;;;;;;50.77;11.13;;;;;;;16.69;nan;100820.28;4867108;29;20956;-87
2022/03/20 11:38:19;;;;;;;36.87;10.83;;;;;;;16.44;nan;100829.44;4867142;29;20454;-88
2022/03/20 11:41:11;;;;;;;34.63;9.03;;;;;;;16.21;nan;100812.75;4881027;29;20449;-88
2022/03/20 11:43:44;;;;;;;29.80;8.73;;;;;;;15.92;nan;100852.06;4896782;29;20453;-85
2022/03/20 11:46:32;;;;;;;32.87;9.53;;;;;;;15.71;nan;100832.13;4906037;29;20513;-84
2022/03/20 11:49:29;;;;;;;43.70;11.50;;;;;;;15.59;nan;100841.34;4897329;29;20445;-88
2022/03/20 11:52:03;;;;;;;29.63;7.43;;;;;;;15.51;nan;100856.19;4895251;29;20850;-89
2022/03/20 11:54:32;;;;;;;59.30;16.10;;;;;;;15.42;nan;100841.00;4881410;29;20462;-91
2022/03/20 11:57:00;;;;;;;29.00;7.63;;;;;;;15.39;nan;100834.06;4866451;29;20457;-88
2022/03/20 11:59:55;;;;;;;21.70;6.10;;;;;;;15.36;nan;100837.25;4910636;29;20822;-88
2022/03/20 12:02:35;;;;;;;25.37;6.87;;;;;;;15.32;nan;100854.44;4893842;29;20474;-87
2022/03/20 12:05:21;;;;;;;25.33;4.93;;;;;;;15.29;nan;100852.13;4897628;29;20454;-86
2022/03/20 12:08:14;;;;;;;25.77;5.40;;;;;;;15.27;nan;100837.72;4896793;29;20438;-83
2022/03/20 12:11:18;;;;;;;19.93;5.20;;;;;;;15.25;nan;100831.59;4880892;29;20472;-86
2022/03/20 12:14:10;;;;;;;39.87;5.73;;;;;;;15.18;nan;100804.97;4883570;29;20538;-85
2022/03/20 12:16:53;;;;;;;23.87;5.93;;;;;;;15.23;nan;100815.28;4882900;29;20457;-85